createdAt,value
2022-10-13T05:31:30.022Z,11.50
2022-10-13T05:34:32.714Z,11.30
2022-10-13T05:37:34.866Z,11.30
2022-10-13T05:40:36.662Z,11.20
2022-10-13T05:43:40.677Z,11.00
2022-10-13T05:46:42.395Z,11.10
2022-10-13T05:49:44.323Z,11.30
2022-10-13T05:52:46.604Z,11.50
2022-10-13T05:55:48.479Z,11.60
2022-10-13T05:58:55.703Z,11.70
2022-10-13T06:01:58.098Z,11.80
2022-10-13T06:05:00.220Z,11.90
2022-10-13T06:08:02.136Z,11.90
2022-10-13T06:11:05.639Z,12.10
2022-10-13T06:49:23.967Z,11.10
2022-10-13T06:52:25.917Z,11.30
2022-10-13T06:55:27.793Z,11.70
2022-10-13T06:58:29.749Z,11.90
2022-10-13T07:01:31.861Z,12.00
2022-10-13T07:04:33.602Z,12.20
2022-10-13T07:07:35.699Z,12.20
2022-10-13T07:10:38.402Z,12.30
2022-10-13T07:13:45.283Z,12.30
2022-10-13T07:16:49.269Z,12.40
2022-10-13T07:19:52.049Z,12.60
2022-10-13T07:22:55.489Z,12.70
2022-10-13T07:25:57.578Z,12.90
2022-10-13T07:29:00.582Z,13.20
2022-10-13T07:32:02.463Z,13.30
2022-10-13T07:35:05.045Z,13.30
2022-10-13T07:38:08.169Z,13.30
2022-10-13T07:41:11.079Z,13.40
2022-10-13T07:44:12.895Z,13.50
2022-10-13T07:47:14.675Z,13.60
2022-10-13T07:50:16.951Z,13.60
2022-10-13T07:53:18.934Z,13.70
2022-10-13T07:56:21.181Z,14.10
2022-10-13T07:59:23.581Z,14.70
2022-10-13T08:02:26.583Z,15.50
2022-10-13T08:05:28.703Z,16.40
2022-10-13T08:08:30.918Z,16.60
2022-10-13T08:11:32.910Z,17.30
2022-10-13T08:14:35.264Z,17.10
2022-10-13T08:17:38.424Z,17.70
2022-10-13T08:20:43.806Z,17.90
2022-10-13T08:23:46.587Z,18.00
2022-10-13T08:26:49.756Z,17.80
2022-10-13T08:29:51.836Z,16.60
2022-10-13T08:32:53.807Z,16.70
2022-10-13T08:35:56.387Z,17.00
2022-10-13T08:38:58.393Z,17.10
2022-10-13T08:42:00.903Z,17.10
2022-10-13T08:48:34.002Z,17.00
2022-10-13T08:51:36.817Z,17.00
2022-10-13T08:54:39.133Z,17.30
2022-10-13T08:57:41.345Z,17.30
2022-10-13T09:00:43.378Z,17.30
2022-10-13T09:04:25.223Z,17.50
2022-10-13T09:07:31.709Z,17.60
2022-10-13T09:10:33.765Z,17.70
2022-10-13T09:13:36.023Z,17.90
2022-10-13T09:16:41.447Z,18.10
2022-10-13T09:19:44.025Z,18.30
2022-10-13T09:23:02.201Z,18.10
2022-10-13T09:26:15.831Z,17.90
2022-10-13T09:29:21.049Z,17.90
2022-10-13T09:32:24.397Z,17.90
2022-10-13T09:35:26.697Z,18.00
2022-10-13T09:38:30.836Z,18.00
2022-10-13T09:41:34.177Z,18.00
2022-10-13T09:44:36.102Z,18.00
2022-10-13T09:47:39.242Z,17.80
2022-10-13T09:50:50.018Z,17.00
2022-10-13T09:53:52.496Z,16.80
2022-10-13T09:57:01.547Z,16.50
2022-10-13T10:00:25.603Z,16.50
2022-10-13T10:03:34.433Z,16.50
2022-10-13T10:06:37.826Z,16.50
2022-10-13T10:09:47.601Z,16.70
2022-10-13T10:12:50.261Z,16.60
2022-10-13T10:16:15.320Z,17.00
2022-10-13T10:19:40.996Z,17.10
2022-10-13T10:22:56.985Z,17.10
2022-10-13T10:26:06.730Z,16.90
2022-10-13T10:29:44.883Z,17.20
2022-10-13T10:33:11.622Z,17.30
2022-10-13T10:36:40.629Z,17.70
2022-10-13T10:40:13.101Z,18.00
2022-10-13T10:43:48.433Z,18.20
2022-10-13T10:46:51.313Z,18.90
2022-10-13T10:50:00.135Z,19.70
2022-10-13T10:53:24.572Z,20.20
2022-10-13T10:56:35.190Z,20.60
2022-10-13T11:00:05.314Z,20.70
2022-10-13T11:03:37.406Z,20.70
2022-10-13T11:06:39.382Z,19.90
2022-10-13T11:09:42.241Z,19.50
2022-10-13T11:12:51.313Z,19.30
2022-10-13T11:15:53.720Z,19.20
2022-10-13T11:18:56.875Z,19.00
2022-10-13T11:21:58.759Z,18.80
2022-10-13T11:25:04.021Z,18.90
2022-10-13T11:28:22.461Z,18.90
2022-10-13T11:31:48.379Z,19.10
2022-10-13T11:34:58.598Z,19.40
2022-10-13T11:38:17.943Z,18.70
2022-10-13T11:41:28.286Z,18.50
2022-10-13T11:44:39.843Z,18.30
2022-10-13T11:48:07.165Z,18.20
2022-10-13T11:51:30.233Z,18.20
2022-10-13T11:54:40.219Z,18.10
2022-10-13T11:57:42.360Z,18.00
2022-10-13T12:01:00.919Z,18.10
2022-10-13T12:04:14.649Z,18.30
2022-10-13T12:07:21.900Z,18.90
2022-10-13T12:10:30.425Z,18.70
2022-10-13T12:13:34.316Z,18.70
2022-10-13T12:16:36.279Z,18.60
2022-10-13T12:19:40.473Z,18.50
2022-10-13T12:22:48.448Z,18.60
2022-10-13T12:25:56.888Z,18.70
2022-10-13T12:29:02.595Z,19.00
2022-10-13T12:32:25.686Z,19.00
2022-10-13T12:35:31.128Z,18.60
2022-10-13T12:38:33.016Z,18.60
2022-10-13T12:41:37.112Z,18.70
2022-10-13T12:44:39.312Z,18.20
2022-10-13T12:47:45.414Z,18.20
2022-10-13T12:50:47.272Z,18.20
2022-10-13T12:53:49.307Z,17.90
2022-10-13T12:56:56.380Z,17.70
2022-10-13T12:59:58.415Z,17.80
2022-10-13T13:03:03.397Z,17.60
2022-10-13T13:06:16.074Z,18.00
2022-10-13T13:09:23.511Z,17.90
2022-10-13T13:12:28.217Z,18.00
2022-10-13T13:15:35.809Z,17.80
2022-10-13T13:18:41.757Z,17.60
2022-10-13T13:21:43.886Z,17.40
2022-10-13T13:24:54.484Z,17.50
2022-10-13T13:27:57.986Z,17.70
2022-10-13T13:31:00.347Z,17.50
2022-10-13T13:34:04.531Z,17.60
2022-10-13T13:37:09.456Z,17.70
2022-10-13T13:40:16.896Z,17.50
2022-10-13T13:43:18.673Z,17.70
2022-10-13T13:46:23.630Z,17.80
2022-10-13T13:49:25.470Z,17.90
2022-10-13T13:52:27.333Z,17.90
2022-10-13T13:55:30.105Z,18.00
2022-10-13T13:58:31.995Z,18.10
2022-10-13T14:01:33.988Z,18.20
2022-10-13T14:04:36.002Z,18.10
2022-10-13T14:07:37.791Z,17.80
2022-10-13T14:10:41.095Z,17.70
2022-10-13T14:13:43.165Z,17.70
2022-10-13T14:16:44.942Z,17.60
2022-10-13T14:19:46.694Z,17.50
2022-10-13T14:22:48.444Z,17.60
2022-10-13T14:25:50.280Z,17.60
2022-10-13T14:28:52.073Z,17.50
2022-10-13T14:31:53.869Z,17.50
2022-10-13T14:34:55.659Z,17.60
2022-10-13T14:37:58.272Z,17.70
2022-10-13T14:41:04.213Z,17.60
2022-10-13T14:44:06.062Z,17.70
2022-10-13T14:47:08.082Z,17.80
2022-10-13T14:50:10.765Z,17.70
2022-10-13T14:53:15.463Z,17.60
2022-10-13T14:56:26.824Z,17.50
2022-10-13T14:59:28.771Z,17.40
2022-10-13T15:02:30.561Z,17.40
2022-10-13T15:05:32.484Z,17.30
2022-10-13T15:08:34.358Z,17.20
2022-10-13T15:11:36.371Z,17.10
2022-10-13T15:14:38.093Z,17.00
2022-10-13T15:17:40.140Z,17.00
2022-10-13T15:20:46.747Z,16.90
2022-10-13T15:23:48.920Z,16.90
2022-10-13T15:26:50.693Z,17.00
2022-10-13T15:29:52.596Z,16.90
2022-10-13T15:32:54.382Z,16.80
2022-10-13T15:35:56.946Z,16.90
2022-10-13T15:38:58.797Z,16.80
2022-10-13T15:42:02.373Z,16.70
2022-10-13T15:45:12.087Z,16.80
2022-10-13T15:48:14.163Z,16.80
2022-10-13T15:51:19.496Z,16.80
2022-10-13T15:54:22.703Z,16.80
2022-10-13T15:57:24.690Z,16.70
